Klodzko, Poland

2:53 PM CEST on September 02, 2015 (GMT +0200)
Machov | | Change Station
CLOSE
Current Station
Personal Weather Station
Location: Machov, KRáLOVéHRADECKý KRAJ
Elevation: 1558 ft
Nearby Weather Stations

Elev 1558 ft 50.50 °N, 16.28 °E | Updated 26 seconds ago

Scattered Clouds
Scattered Clouds
68.2 °F
Feels Like 68.2 °F
N
1.2
Wind Variable Wind from SSE
Gusts 3.8 mph

Today
High -- | Low -- °F
--% Chance of Precip.
Yesterday
High -- | Low -- °F
Precip. -- in
6:08 AM 7:36 PM
Waning Gibbous, 80% visible
Pressure 30.04 in
Visibility 6.2 miles
Clouds Scattered Clouds 4300 ft
Dew Point 51 °F
Humidity 55%
Rainfall 0.43 in
Snow Depth Not available.
UV 5 out of 12
Pollen Not available.
Air Quality Not available.
Flu Activity Not available.
METAR EPWR 021230Z 31008KT 280V340 9999 SCT043 21/09 Q1017
Pressure 30.04 in
Visibility 6.2 miles
Clouds Scattered Clouds 4300 ft
Dew Point 51 °F
Humidity 55%
Rainfall 0.43 in
Snow Depth Not available.
UV 5 out of 12
Pollen Not available.
Air Quality Not available.
Flu Activity Not available.
METAR EPWR 021230Z 31008KT 280V340 9999 SCT043 21/09 Q1017

10-Day Weather Forecast

×

Almanac

Astronomy

Sep. 02, 2015 Rise Set
Actual Time
Civil Twilight
Nautical Twilight
Astronomical Twilight
Moon
Length of Visible Light
Length of Day
Tomorrow will be .
, % of the Moon is Illuminated

Today's Extremes

Country Highs Country Lows

Community

WunderPhotos

Upload Photos

1,851,738 photos uploaded!

WunderBlogs® & News

Nearby

Air Quality

  Air Quality AQ Index Pollutant
Not available.

Snow Depth

Station Depth Elevation

Earthquake Activity

City Distance Mag. Time & Date
Minimum magnitude displayed is 2.5.

Coastal Water Temperatures

Place Temperature

Stations

Nearby Weather Stations

Station Location Temp. Windchill Dew Point Humidity Wind Precip. Elev Updated Type